Avoca, Minnesota
Current Conditions -  °F | °C
As of 3:54 AM on Friday 31 Oct 2014 (Local Time) from KDVP Reporting Station
Clear Clear  
Wind Chill: 13°   Ceiling: Unl
Heat Index: 24°   Visibility: 10mi
Dew Point: 20°   Wind: 12mph
Humidity: 87%   Direction: 330°NNW
Pressure: 30.49"   Gusts: NA
Location:  43.95°N, 95.65°W
Report Text: KDVP 310854Z AUTO 33010KT 10SM CLR M05/M06 A3049 RMK AO2 T10461065
Loading
Personal Weather Stations






























Interactive Weather Map
Tropical Storm Tracking
New forecast layout! Learn more

10-Day Weather Forecast

Advertisements
Track Severe Weather on mobile